Main page
METAR-TAF:

METAR-TAF

Airports :

Jasper County Airport (Bell Field)

Jasper, Texas, United States

latitude: 30-53-08N, longitude: 094-02-05W, elevation: 213 ft

Current weather observation

The report was made 16 minutes ago, at 02:15 UTC
Wind 12 mph from the North
Temperature 46°F
Humidity 87%
Pressure 30.37 in. Hg
Visibility: 10 miles
Overcast at a height of 900 ft

METAR: KJAS 110215Z AUTO 01010KT 10SM OVC009 08/06 A3037 RMK AO2 T00760062

Time: 20:31 (02:31 UTC)


TAF: missing

Weather observations and forecasts of more than 4000 airports (METAR and TAF reports).

The available stations are represented by yellow and red dots on the map.

Hover mouse over dot to see the name of the station.

Then click to see weather observations and forecasts.

To change the map : click on the green buttons with a black cross to zoom in, on the green button with a dash to zoom out, or on the green arrows for adjacent maps.


METAR-TAF: